sensor_id;sensor_type;location;lat;lon;timestamp;P1;durP1;ratioP1;P2;durP2;ratioP2
16669;SDS011;8448;52.034;5.158;2023-02-15T00:01:32;45.00;;;25.03;;
16669;SDS011;8448;52.034;5.158;2023-02-15T00:04:00;44.67;;;25.30;;
16669;SDS011;8448;52.034;5.158;2023-02-15T00:06:27;43.87;;;25.40;;
16669;SDS011;8448;52.034;5.158;2023-02-15T00:08:55;43.43;;;25.30;;
16669;SDS011;8448;52.034;5.158;2023-02-15T00:11:22;44.47;;;25.07;;
16669;SDS011;8448;52.034;5.158;2023-02-15T00:14:05;43.50;;;25.60;;
16669;SDS011;8448;52.034;5.158;2023-02-15T00:16:33;47.07;;;25.37;;
16669;SDS011;8448;52.034;5.158;2023-02-15T00:19:00;48.67;;;25.33;;
16669;SDS011;8448;52.034;5.158;2023-02-15T00:21:28;42.30;;;24.03;;
16669;SDS011;8448;52.034;5.158;2023-02-15T00:23:56;41.07;;;23.63;;
16669;SDS011;8448;52.034;5.158;2023-02-15T00:26:24;41.13;;;23.93;;
16669;SDS011;8448;52.034;5.158;2023-02-15T00:28:51;42.93;;;25.10;;
16669;SDS011;8448;52.034;5.158;2023-02-15T00:31:20;40.20;;;24.50;;
16669;SDS011;8448;52.034;5.158;2023-02-15T00:33:48;44.00;;;24.90;;
16669;SDS011;8448;52.034;5.158;2023-02-15T00:36:15;45.77;;;25.37;;
16669;SDS011;8448;52.034;5.158;2023-02-15T00:38:42;40.27;;;23.53;;
16669;SDS011;8448;52.034;5.158;2023-02-15T00:41:10;42.43;;;24.27;;
16669;SDS011;8448;52.034;5.158;2023-02-15T00:43:37;44.30;;;24.07;;
16669;SDS011;8448;52.034;5.158;2023-02-15T00:46:06;42.30;;;24.20;;
16669;SDS011;8448;52.034;5.158;2023-02-15T00:48:34;47.10;;;24.43;;
16669;SDS011;8448;52.034;5.158;2023-02-15T00:51:02;42.97;;;24.13;;
16669;SDS011;8448;52.034;5.158;2023-02-15T00:53:30;44.93;;;25.00;;
16669;SDS011;8448;52.034;5.158;2023-02-15T00:55:58;47.90;;;26.63;;
16669;SDS011;8448;52.034;5.158;2023-02-15T00:58:25;49.83;;;27.83;;
16669;SDS011;8448;52.034;5.158;2023-02-15T01:00:52;49.13;;;26.63;;
16669;SDS011;8448;52.034;5.158;2023-02-15T01:03:22;49.17;;;28.17;;
16669;SDS011;8448;52.034;5.158;2023-02-15T01:05:51;45.57;;;25.77;;
16669;SDS011;8448;52.034;5.158;2023-02-15T01:08:18;45.60;;;25.43;;
16669;SDS011;8448;52.034;5.158;2023-02-15T01:10:46;50.30;;;26.57;;
16669;SDS011;8448;52.034;5.158;2023-02-15T01:13:14;45.23;;;25.97;;
16669;SDS011;8448;52.034;5.158;2023-02-15T01:15:42;44.50;;;25.17;;
16669;SDS011;8448;52.034;5.158;2023-02-15T01:18:10;44.80;;;25.43;;
16669;SDS011;8448;52.034;5.158;2023-02-15T01:20:38;43.03;;;24.63;;
16669;SDS011;8448;52.034;5.158;2023-02-15T01:23:08;44.67;;;26.00;;
16669;SDS011;8448;52.034;5.158;2023-02-15T01:25:35;47.17;;;25.50;;
16669;SDS011;8448;52.034;5.158;2023-02-15T01:28:03;44.83;;;26.07;;
16669;SDS011;8448;52.034;5.158;2023-02-15T01:30:31;44.37;;;25.17;;
16669;SDS011;8448;52.034;5.158;2023-02-15T01:32:59;48.93;;;25.60;;
16669;SDS011;8448;52.034;5.158;2023-02-15T01:35:29;44.43;;;25.70;;
16669;SDS011;8448;52.034;5.158;2023-02-15T01:37:56;42.23;;;24.93;;
16669;SDS011;8448;52.034;5.158;2023-02-15T01:40:25;47.07;;;26.37;;
16669;SDS011;8448;52.034;5.158;2023-02-15T01:42:53;53.67;;;26.87;;
16669;SDS011;8448;52.034;5.158;2023-02-15T01:45:22;46.40;;;26.33;;
16669;SDS011;8448;52.034;5.158;2023-02-15T01:47:52;47.57;;;26.13;;
16669;SDS011;8448;52.034;5.158;2023-02-15T01:50:23;51.03;;;27.97;;
16669;SDS011;8448;52.034;5.158;2023-02-15T01:52:55;48.83;;;26.83;;
16669;SDS011;8448;52.034;5.158;2023-02-15T01:55:28;49.67;;;27.20;;
16669;SDS011;8448;52.034;5.158;2023-02-15T01:57:58;46.97;;;25.93;;
16669;SDS011;8448;52.034;5.158;2023-02-15T02:00:26;47.03;;;26.77;;
16669;SDS011;8448;52.034;5.158;2023-02-15T02:02:53;47.53;;;26.73;;
16669;SDS011;8448;52.034;5.158;2023-02-15T02:05:24;51.10;;;28.00;;
16669;SDS011;8448;52.034;5.158;2023-02-15T02:07:51;54.70;;;27.70;;
16669;SDS011;8448;52.034;5.158;2023-02-15T02:10:22;48.53;;;26.77;;
16669;SDS011;8448;52.034;5.158;2023-02-15T02:12:51;43.87;;;25.83;;
16669;SDS011;8448;52.034;5.158;2023-02-15T02:15:21;46.10;;;25.77;;
16669;SDS011;8448;52.034;5.158;2023-02-15T02:17:55;43.70;;;24.77;;
16669;SDS011;8448;52.034;5.158;2023-02-15T02:20:35;45.93;;;26.33;;
16669;SDS011;8448;52.034;5.158;2023-02-15T02:23:16;46.53;;;25.90;;
16669;SDS011;8448;52.034;5.158;2023-02-15T02:25:56;44.50;;;25.73;;
16669;SDS011;8448;52.034;5.158;2023-02-15T02:31:31;43.93;;;24.00;;
16669;SDS011;8448;52.034;5.158;2023-02-15T02:34:13;44.73;;;25.17;;
16669;SDS011;8448;52.034;5.158;2023-02-15T02:36:45;45.83;;;25.57;;
16669;SDS011;8448;52.034;5.158;2023-02-15T02:39:20;45.83;;;25.40;;
16669;SDS011;8448;52.034;5.158;2023-02-15T02:41:51;46.40;;;25.53;;
16669;SDS011;8448;52.034;5.158;2023-02-15T02:44:24;49.10;;;26.67;;
16669;SDS011;8448;52.034;5.158;2023-02-15T02:46:56;49.30;;;27.03;;
16669;SDS011;8448;52.034;5.158;2023-02-15T02:49:32;47.10;;;26.13;;
16669;SDS011;8448;52.034;5.158;2023-02-15T02:52:01;49.20;;;27.07;;
16669;SDS011;8448;52.034;5.158;2023-02-15T02:54:31;49.03;;;26.63;;
16669;SDS011;8448;52.034;5.158;2023-02-15T02:57:01;45.17;;;25.70;;
16669;SDS011;8448;52.034;5.158;2023-02-15T02:59:32;49.83;;;26.67;;
16669;SDS011;8448;52.034;5.158;2023-02-15T03:02:02;51.55;;;31.33;;
16669;SDS011;8448;52.034;5.158;2023-02-15T03:04:35;49.30;;;27.10;;
16669;SDS011;8448;52.034;5.158;2023-02-15T03:07:04;50.43;;;27.83;;
16669;SDS011;8448;52.034;5.158;2023-02-15T03:09:35;50.97;;;28.37;;
16669;SDS011;8448;52.034;5.158;2023-02-15T03:12:07;50.73;;;27.37;;
16669;SDS011;8448;52.034;5.158;2023-02-15T03:14:38;48.83;;;26.63;;
16669;SDS011;8448;52.034;5.158;2023-02-15T03:17:07;48.93;;;26.17;;
16669;SDS011;8448;52.034;5.158;2023-02-15T03:19:36;48.10;;;27.23;;
16669;SDS011;8448;52.034;5.158;2023-02-15T03:22:05;51.43;;;26.43;;
16669;SDS011;8448;52.034;5.158;2023-02-15T03:24:35;49.43;;;27.50;;
16669;SDS011;8448;52.034;5.158;2023-02-15T03:27:09;49.60;;;27.27;;
16669;SDS011;8448;52.034;5.158;2023-02-15T03:29:43;50.97;;;27.73;;
16669;SDS011;8448;52.034;5.158;2023-02-15T03:32:11;48.27;;;27.60;;
16669;SDS011;8448;52.034;5.158;2023-02-15T03:34:42;52.57;;;28.23;;
16669;SDS011;8448;52.034;5.158;2023-02-15T03:37:10;53.63;;;29.07;;
16669;SDS011;8448;52.034;5.158;2023-02-15T03:39:42;53.67;;;28.67;;
16669;SDS011;8448;52.034;5.158;2023-02-15T03:42:13;54.33;;;28.90;;
16669;SDS011;8448;52.034;5.158;2023-02-15T03:44:45;50.47;;;28.40;;
16669;SDS011;8448;52.034;5.158;2023-02-15T03:47:17;56.17;;;34.42;;
16669;SDS011;8448;52.034;5.158;2023-02-15T03:49:48;50.20;;;27.93;;
16669;SDS011;8448;52.034;5.158;2023-02-15T03:52:18;50.57;;;28.13;;
16669;SDS011;8448;52.034;5.158;2023-02-15T03:54:46;51.47;;;27.20;;
16669;SDS011;8448;52.034;5.158;2023-02-15T03:57:15;49.43;;;26.43;;
16669;SDS011;8448;52.034;5.158;2023-02-15T04:00:02;51.90;;;26.97;;
16669;SDS011;8448;52.034;5.158;2023-02-15T04:02:57;50.40;;;27.27;;
16669;SDS011;8448;52.034;5.158;2023-02-15T04:05:40;49.70;;;25.30;;
16669;SDS011;8448;52.034;5.158;2023-02-15T04:08:08;48.47;;;27.27;;
16669;SDS011;8448;52.034;5.158;2023-02-15T04:10:36;47.10;;;26.63;;
16669;SDS011;8448;52.034;5.158;2023-02-15T04:13:17;49.15;;;27.45;;
16669;SDS011;8448;52.034;5.158;2023-02-15T04:15:45;46.50;;;25.93;;
16669;SDS011;8448;52.034;5.158;2023-02-15T04:18:30;50.53;;;27.67;;
16669;SDS011;8448;52.034;5.158;2023-02-15T04:21:16;51.60;;;26.40;;
16669;SDS011;8448;52.034;5.158;2023-02-15T04:24:02;50.60;;;26.90;;
16669;SDS011;8448;52.034;5.158;2023-02-15T04:26:47;48.97;;;25.90;;
16669;SDS011;8448;52.034;5.158;2023-02-15T04:29:17;53.53;;;27.87;;
16669;SDS011;8448;52.034;5.158;2023-02-15T04:31:45;51.53;;;27.63;;
16669;SDS011;8448;52.034;5.158;2023-02-15T04:34:12;49.17;;;27.23;;
16669;SDS011;8448;52.034;5.158;2023-02-15T04:36:41;48.70;;;26.93;;
16669;SDS011;8448;52.034;5.158;2023-02-15T04:39:11;51.35;;;29.58;;
16669;SDS011;8448;52.034;5.158;2023-02-15T04:41:39;50.87;;;27.37;;
16669;SDS011;8448;52.034;5.158;2023-02-15T04:44:06;47.63;;;25.60;;
16669;SDS011;8448;52.034;5.158;2023-02-15T04:46:34;49.83;;;26.50;;
16669;SDS011;8448;52.034;5.158;2023-02-15T04:49:01;55.85;;;33.72;;
16669;SDS011;8448;52.034;5.158;2023-02-15T04:51:29;48.33;;;28.57;;
16669;SDS011;8448;52.034;5.158;2023-02-15T04:53:58;51.43;;;27.87;;
16669;SDS011;8448;52.034;5.158;2023-02-15T04:56:25;53.90;;;26.70;;
16669;SDS011;8448;52.034;5.158;2023-02-15T04:58:55;49.57;;;26.50;;
16669;SDS011;8448;52.034;5.158;2023-02-15T05:01:22;48.23;;;27.47;;
16669;SDS011;8448;52.034;5.158;2023-02-15T05:03:49;49.13;;;26.13;;
16669;SDS011;8448;52.034;5.158;2023-02-15T05:06:17;54.03;;;26.33;;
16669;SDS011;8448;52.034;5.158;2023-02-15T05:08:44;50.13;;;27.43;;
16669;SDS011;8448;52.034;5.158;2023-02-15T05:11:13;54.30;;;28.37;;
16669;SDS011;8448;52.034;5.158;2023-02-15T05:13:40;54.20;;;27.03;;
16669;SDS011;8448;52.034;5.158;2023-02-15T05:16:07;48.83;;;26.20;;
16669;SDS011;8448;52.034;5.158;2023-02-15T05:18:35;50.30;;;26.00;;
16669;SDS011;8448;52.034;5.158;2023-02-15T05:21:02;54.58;;;33.55;;
16669;SDS011;8448;52.034;5.158;2023-02-15T05:23:29;49.07;;;27.40;;
16669;SDS011;8448;52.034;5.158;2023-02-15T05:25:57;51.77;;;26.63;;
16669;SDS011;8448;52.034;5.158;2023-02-15T05:28:43;50.83;;;25.37;;
16669;SDS011;8448;52.034;5.158;2023-02-15T05:31:11;52.37;;;26.20;;
16669;SDS011;8448;52.034;5.158;2023-02-15T05:33:39;47.83;;;25.93;;
16669;SDS011;8448;52.034;5.158;2023-02-15T05:36:07;52.53;;;26.23;;
16669;SDS011;8448;52.034;5.158;2023-02-15T05:38:35;47.90;;;25.17;;
16669;SDS011;8448;52.034;5.158;2023-02-15T05:41:03;50.97;;;28.33;;
16669;SDS011;8448;52.034;5.158;2023-02-15T05:43:30;46.83;;;26.47;;
16669;SDS011;8448;52.034;5.158;2023-02-15T05:46:00;51.35;;;25.98;;
16669;SDS011;8448;52.034;5.158;2023-02-15T05:48:27;46.33;;;25.17;;
16669;SDS011;8448;52.034;5.158;2023-02-15T05:50:58;43.97;;;24.43;;
16669;SDS011;8448;52.034;5.158;2023-02-15T05:53:27;45.53;;;24.87;;
16669;SDS011;8448;52.034;5.158;2023-02-15T05:55:55;46.40;;;24.90;;
16669;SDS011;8448;52.034;5.158;2023-02-15T05:58:24;48.70;;;25.17;;
16669;SDS011;8448;52.034;5.158;2023-02-15T06:00:52;49.47;;;25.47;;
16669;SDS011;8448;52.034;5.158;2023-02-15T06:03:21;46.33;;;25.57;;
16669;SDS011;8448;52.034;5.158;2023-02-15T06:05:48;53.80;;;31.73;;
16669;SDS011;8448;52.034;5.158;2023-02-15T06:08:16;53.50;;;26.73;;
16669;SDS011;8448;52.034;5.158;2023-02-15T06:10:44;49.23;;;27.10;;
16669;SDS011;8448;52.034;5.158;2023-02-15T06:13:12;50.17;;;26.67;;
16669;SDS011;8448;52.034;5.158;2023-02-15T06:15:39;46.50;;;24.77;;
16669;SDS011;8448;52.034;5.158;2023-02-15T06:18:07;46.97;;;25.07;;
16669;SDS011;8448;52.034;5.158;2023-02-15T06:20:35;47.60;;;25.83;;
16669;SDS011;8448;52.034;5.158;2023-02-15T06:23:03;47.67;;;25.07;;
16669;SDS011;8448;52.034;5.158;2023-02-15T06:25:30;50.10;;;26.10;;
16669;SDS011;8448;52.034;5.158;2023-02-15T06:27:57;47.83;;;24.80;;
16669;SDS011;8448;52.034;5.158;2023-02-15T06:30:25;53.08;;;31.83;;
16669;SDS011;8448;52.034;5.158;2023-02-15T06:32:52;52.07;;;26.53;;
16669;SDS011;8448;52.034;5.158;2023-02-15T06:35:19;55.53;;;27.97;;
16669;SDS011;8448;52.034;5.158;2023-02-15T06:37:49;54.33;;;26.87;;
16669;SDS011;8448;52.034;5.158;2023-02-15T06:40:16;50.30;;;25.63;;
16669;SDS011;8448;52.034;5.158;2023-02-15T06:42:44;50.80;;;26.53;;
16669;SDS011;8448;52.034;5.158;2023-02-15T06:45:11;52.20;;;26.37;;
16669;SDS011;8448;52.034;5.158;2023-02-15T06:47:38;55.27;;;25.70;;
16669;SDS011;8448;52.034;5.158;2023-02-15T06:50:06;46.90;;;24.63;;
16669;SDS011;8448;52.034;5.158;2023-02-15T06:52:34;46.17;;;24.47;;
16669;SDS011;8448;52.034;5.158;2023-02-15T06:55:03;50.90;;;25.10;;
16669;SDS011;8448;52.034;5.158;2023-02-15T06:57:31;47.43;;;26.03;;
16669;SDS011;8448;52.034;5.158;2023-02-15T06:59:59;48.43;;;25.47;;
16669;SDS011;8448;52.034;5.158;2023-02-15T07:02:26;51.77;;;25.27;;
16669;SDS011;8448;52.034;5.158;2023-02-15T07:04:54;47.23;;;25.03;;
16669;SDS011;8448;52.034;5.158;2023-02-15T07:07:21;52.40;;;26.03;;
16669;SDS011;8448;52.034;5.158;2023-02-15T07:09:48;51.17;;;25.40;;
16669;SDS011;8448;52.034;5.158;2023-02-15T07:12:17;54.13;;;26.23;;
16669;SDS011;8448;52.034;5.158;2023-02-15T07:15:03;48.23;;;25.43;;
16669;SDS011;8448;52.034;5.158;2023-02-15T07:17:31;48.67;;;26.50;;
16669;SDS011;8448;52.034;5.158;2023-02-15T07:19:59;50.30;;;25.27;;
16669;SDS011;8448;52.034;5.158;2023-02-15T07:22:27;50.27;;;26.03;;
16669;SDS011;8448;52.034;5.158;2023-02-15T07:24:54;50.17;;;26.27;;
16669;SDS011;8448;52.034;5.158;2023-02-15T07:27:23;53.10;;;27.43;;
16669;SDS011;8448;52.034;5.158;2023-02-15T07:29:50;50.93;;;26.73;;
16669;SDS011;8448;52.034;5.158;2023-02-15T07:32:18;54.00;;;27.37;;
16669;SDS011;8448;52.034;5.158;2023-02-15T07:34:45;51.73;;;27.47;;
16669;SDS011;8448;52.034;5.158;2023-02-15T07:37:12;50.43;;;26.83;;
16669;SDS011;8448;52.034;5.158;2023-02-15T07:39:40;50.43;;;26.60;;
16669;SDS011;8448;52.034;5.158;2023-02-15T07:42:07;53.37;;;28.07;;
16669;SDS011;8448;52.034;5.158;2023-02-15T07:44:36;61.73;;;27.67;;
16669;SDS011;8448;52.034;5.158;2023-02-15T07:47:03;52.07;;;28.37;;
16669;SDS011;8448;52.034;5.158;2023-02-15T07:49:31;52.87;;;26.93;;
16669;SDS011;8448;52.034;5.158;2023-02-15T07:52:00;55.13;;;27.37;;
16669;SDS011;8448;52.034;5.158;2023-02-15T07:54:27;51.17;;;27.20;;
16669;SDS011;8448;52.034;5.158;2023-02-15T07:56:55;53.37;;;27.33;;
16669;SDS011;8448;52.034;5.158;2023-02-15T07:59:22;49.40;;;26.90;;
16669;SDS011;8448;52.034;5.158;2023-02-15T08:01:51;51.20;;;27.07;;
16669;SDS011;8448;52.034;5.158;2023-02-15T08:04:21;50.20;;;27.30;;
16669;SDS011;8448;52.034;5.158;2023-02-15T08:06:51;52.30;;;28.47;;
16669;SDS011;8448;52.034;5.158;2023-02-15T08:09:19;54.40;;;27.70;;
16669;SDS011;8448;52.034;5.158;2023-02-15T08:11:47;53.03;;;27.40;;
16669;SDS011;8448;52.034;5.158;2023-02-15T08:14:15;53.47;;;28.03;;
16669;SDS011;8448;52.034;5.158;2023-02-15T08:16:44;53.57;;;28.03;;
16669;SDS011;8448;52.034;5.158;2023-02-15T08:19:14;54.23;;;28.27;;
16669;SDS011;8448;52.034;5.158;2023-02-15T08:21:43;54.37;;;28.87;;
16669;SDS011;8448;52.034;5.158;2023-02-15T08:24:12;51.53;;;28.43;;
16669;SDS011;8448;52.034;5.158;2023-02-15T08:26:41;53.37;;;27.27;;
16669;SDS011;8448;52.034;5.158;2023-02-15T08:29:10;48.57;;;27.47;;
16669;SDS011;8448;52.034;5.158;2023-02-15T08:31:37;53.03;;;28.30;;
16669;SDS011;8448;52.034;5.158;2023-02-15T08:34:07;52.90;;;28.40;;
16669;SDS011;8448;52.034;5.158;2023-02-15T08:36:37;55.13;;;28.23;;
16669;SDS011;8448;52.034;5.158;2023-02-15T08:39:05;53.13;;;29.00;;
16669;SDS011;8448;52.034;5.158;2023-02-15T08:41:33;53.00;;;28.20;;
16669;SDS011;8448;52.034;5.158;2023-02-15T08:44:02;51.10;;;27.83;;
16669;SDS011;8448;52.034;5.158;2023-02-15T08:46:32;52.63;;;27.80;;
16669;SDS011;8448;52.034;5.158;2023-02-15T08:49:00;46.67;;;26.53;;
16669;SDS011;8448;52.034;5.158;2023-02-15T08:51:28;46.10;;;26.73;;
16669;SDS011;8448;52.034;5.158;2023-02-15T08:53:59;44.63;;;25.23;;
16669;SDS011;8448;52.034;5.158;2023-02-15T08:56:28;43.73;;;24.93;;
16669;SDS011;8448;52.034;5.158;2023-02-15T08:58:58;43.70;;;24.73;;
16669;SDS011;8448;52.034;5.158;2023-02-15T09:01:27;44.67;;;25.43;;
16669;SDS011;8448;52.034;5.158;2023-02-15T09:03:56;45.87;;;25.57;;
16669;SDS011;8448;52.034;5.158;2023-02-15T09:06:24;42.43;;;23.90;;
16669;SDS011;8448;52.034;5.158;2023-02-15T09:08:52;41.97;;;24.30;;
16669;SDS011;8448;52.034;5.158;2023-02-15T09:11:21;42.87;;;24.53;;
16669;SDS011;8448;52.034;5.158;2023-02-15T09:13:51;40.37;;;23.60;;
16669;SDS011;8448;52.034;5.158;2023-02-15T09:16:20;41.80;;;24.33;;
16669;SDS011;8448;52.034;5.158;2023-02-15T09:18:50;41.07;;;24.37;;
16669;SDS011;8448;52.034;5.158;2023-02-15T09:21:18;40.03;;;23.57;;
16669;SDS011;8448;52.034;5.158;2023-02-15T09:23:47;43.67;;;23.93;;
16669;SDS011;8448;52.034;5.158;2023-02-15T09:26:16;42.73;;;25.20;;
16669;SDS011;8448;52.034;5.158;2023-02-15T09:28:46;41.13;;;23.93;;
16669;SDS011;8448;52.034;5.158;2023-02-15T09:31:15;39.10;;;24.67;;
16669;SDS011;8448;52.034;5.158;2023-02-15T09:33:44;41.87;;;24.27;;
16669;SDS011;8448;52.034;5.158;2023-02-15T09:36:16;39.37;;;23.57;;
16669;SDS011;8448;52.034;5.158;2023-02-15T09:38:44;40.47;;;24.50;;
16669;SDS011;8448;52.034;5.158;2023-02-15T09:41:26;38.07;;;24.07;;
16669;SDS011;8448;52.034;5.158;2023-02-15T09:44:25;38.73;;;24.63;;
16669;SDS011;8448;52.034;5.158;2023-02-15T09:47:09;41.88;;;25.55;;
16669;SDS011;8448;52.034;5.158;2023-02-15T09:49:52;39.80;;;25.90;;
16669;SDS011;8448;52.034;5.158;2023-02-15T09:52:26;39.03;;;24.50;;
16669;SDS011;8448;52.034;5.158;2023-02-15T09:55:07;41.10;;;25.17;;
16669;SDS011;8448;52.034;5.158;2023-02-15T09:57:56;39.47;;;24.93;;
16669;SDS011;8448;52.034;5.158;2023-02-15T10:00:34;38.33;;;24.77;;
16669;SDS011;8448;52.034;5.158;2023-02-15T10:03:10;39.43;;;24.50;;
16669;SDS011;8448;52.034;5.158;2023-02-15T10:05:51;38.43;;;24.63;;
16669;SDS011;8448;52.034;5.158;2023-02-15T10:11:27;39.17;;;24.67;;
16669;SDS011;8448;52.034;5.158;2023-02-15T10:14:12;38.17;;;25.43;;
16669;SDS011;8448;52.034;5.158;2023-02-15T10:16:56;38.67;;;25.27;;
16669;SDS011;8448;52.034;5.158;2023-02-15T10:19:35;40.63;;;25.30;;
16669;SDS011;8448;52.034;5.158;2023-02-15T10:22:11;40.17;;;25.50;;
16669;SDS011;8448;52.034;5.158;2023-02-15T10:25:00;41.80;;;25.80;;
16669;SDS011;8448;52.034;5.158;2023-02-15T10:27:44;43.13;;;25.90;;
16669;SDS011;8448;52.034;5.158;2023-02-15T10:30:13;45.60;;;26.80;;
16669;SDS011;8448;52.034;5.158;2023-02-15T10:32:45;41.47;;;25.60;;
16669;SDS011;8448;52.034;5.158;2023-02-15T10:35:20;41.40;;;26.60;;
16669;SDS011;8448;52.034;5.158;2023-02-15T10:37:53;40.07;;;26.17;;
16669;SDS011;8448;52.034;5.158;2023-02-15T10:40:28;43.10;;;27.10;;
16669;SDS011;8448;52.034;5.158;2023-02-15T10:43:08;40.67;;;26.70;;
16669;SDS011;8448;52.034;5.158;2023-02-15T10:45:50;40.47;;;26.60;;
16669;SDS011;8448;52.034;5.158;2023-02-15T10:48:25;38.83;;;26.20;;
16669;SDS011;8448;52.034;5.158;2023-02-15T10:51:04;40.27;;;25.73;;
16669;SDS011;8448;52.034;5.158;2023-02-15T10:53:37;41.80;;;27.07;;
16669;SDS011;8448;52.034;5.158;2023-02-15T10:56:12;41.67;;;27.37;;
16669;SDS011;8448;52.034;5.158;2023-02-15T10:58:51;41.93;;;26.87;;
16669;SDS011;8448;52.034;5.158;2023-02-15T11:01:34;38.53;;;26.30;;
16669;SDS011;8448;52.034;5.158;2023-02-15T11:04:08;40.07;;;26.67;;
16669;SDS011;8448;52.034;5.158;2023-02-15T11:06:57;39.63;;;26.20;;
16669;SDS011;8448;52.034;5.158;2023-02-15T11:12:12;40.30;;;26.00;;
16669;SDS011;8448;52.034;5.158;2023-02-15T11:14:43;42.90;;;26.13;;
16669;SDS011;8448;52.034;5.158;2023-02-15T11:17:14;43.73;;;27.37;;
16669;SDS011;8448;52.034;5.158;2023-02-15T11:19:47;41.77;;;26.83;;
16669;SDS011;8448;52.034;5.158;2023-02-15T11:22:19;41.30;;;26.80;;
16669;SDS011;8448;52.034;5.158;2023-02-15T11:24:46;42.17;;;28.20;;
16669;SDS011;8448;52.034;5.158;2023-02-15T11:27:19;44.63;;;27.90;;
16669;SDS011;8448;52.034;5.158;2023-02-15T11:29:50;44.03;;;27.93;;
16669;SDS011;8448;52.034;5.158;2023-02-15T11:32:22;44.50;;;28.13;;
16669;SDS011;8448;52.034;5.158;2023-02-15T11:34:53;42.95;;;28.20;;
16669;SDS011;8448;52.034;5.158;2023-02-15T11:37:24;42.97;;;27.70;;
16669;SDS011;8448;52.034;5.158;2023-02-15T11:39:55;41.17;;;27.13;;
16669;SDS011;8448;52.034;5.158;2023-02-15T11:42:23;43.60;;;29.38;;
16669;SDS011;8448;52.034;5.158;2023-02-15T11:44:54;41.33;;;27.98;;
16669;SDS011;8448;52.034;5.158;2023-02-15T11:47:25;41.60;;;29.00;;
16669;SDS011;8448;52.034;5.158;2023-02-15T11:49:54;40.83;;;27.42;;
16669;SDS011;8448;52.034;5.158;2023-02-15T11:52:21;42.75;;;27.85;;
16669;SDS011;8448;52.034;5.158;2023-02-15T11:54:50;46.30;;;29.42;;
16669;SDS011;8448;52.034;5.158;2023-02-15T11:57:19;42.03;;;27.98;;
16669;SDS011;8448;52.034;5.158;2023-02-15T11:59:52;42.45;;;28.65;;
16669;SDS011;8448;52.034;5.158;2023-02-15T12:02:24;44.15;;;28.73;;
16669;SDS011;8448;52.034;5.158;2023-02-15T12:04:57;41.60;;;29.17;;
16669;SDS011;8448;52.034;5.158;2023-02-15T12:07:28;41.78;;;28.40;;
16669;SDS011;8448;52.034;5.158;2023-02-15T12:09:59;43.72;;;28.98;;
16669;SDS011;8448;52.034;5.158;2023-02-15T12:12:32;41.72;;;28.17;;
16669;SDS011;8448;52.034;5.158;2023-02-15T12:15:01;42.80;;;28.23;;
16669;SDS011;8448;52.034;5.158;2023-02-15T12:17:31;40.53;;;28.45;;
16669;SDS011;8448;52.034;5.158;2023-02-15T12:20:02;46.47;;;30.40;;
16669;SDS011;8448;52.034;5.158;2023-02-15T12:22:31;42.35;;;29.48;;
16669;SDS011;8448;52.034;5.158;2023-02-15T12:25:00;44.97;;;31.60;;
16669;SDS011;8448;52.034;5.158;2023-02-15T12:27:29;42.58;;;29.98;;
16669;SDS011;8448;52.034;5.158;2023-02-15T12:29:58;44.22;;;30.90;;
16669;SDS011;8448;52.034;5.158;2023-02-15T12:32:27;43.75;;;30.55;;
16669;SDS011;8448;52.034;5.158;2023-02-15T12:34:59;44.05;;;30.58;;
16669;SDS011;8448;52.034;5.158;2023-02-15T12:37:33;45.05;;;31.13;;
16669;SDS011;8448;52.034;5.158;2023-02-15T12:40:02;47.65;;;32.08;;
16669;SDS011;8448;52.034;5.158;2023-02-15T12:42:44;44.05;;;31.00;;
16669;SDS011;8448;52.034;5.158;2023-02-15T12:45:22;42.28;;;29.83;;
16669;SDS011;8448;52.034;5.158;2023-02-15T12:48:14;45.58;;;31.23;;
16669;SDS011;8448;52.034;5.158;2023-02-15T12:50:47;46.35;;;32.33;;
16669;SDS011;8448;52.034;5.158;2023-02-15T12:53:16;41.75;;;29.55;;
16669;SDS011;8448;52.034;5.158;2023-02-15T12:55:52;43.35;;;30.45;;
16669;SDS011;8448;52.034;5.158;2023-02-15T12:58:25;45.83;;;32.47;;
16669;SDS011;8448;52.034;5.158;2023-02-15T13:01:02;45.05;;;31.20;;
16669;SDS011;8448;52.034;5.158;2023-02-15T13:03:31;45.42;;;31.13;;
16669;SDS011;8448;52.034;5.158;2023-02-15T13:05:59;43.97;;;29.90;;
16669;SDS011;8448;52.034;5.158;2023-02-15T13:08:33;41.72;;;28.98;;
16669;SDS011;8448;52.034;5.158;2023-02-15T13:11:03;47.47;;;30.65;;
16669;SDS011;8448;52.034;5.158;2023-02-15T13:13:32;43.00;;;29.52;;
16669;SDS011;8448;52.034;5.158;2023-02-15T13:16:01;42.40;;;29.95;;
16669;SDS011;8448;52.034;5.158;2023-02-15T13:18:31;45.08;;;30.98;;
16669;SDS011;8448;52.034;5.158;2023-02-15T13:21:04;46.90;;;32.00;;
16669;SDS011;8448;52.034;5.158;2023-02-15T13:23:36;42.60;;;29.52;;
16669;SDS011;8448;52.034;5.158;2023-02-15T13:26:08;49.30;;;32.17;;
16669;SDS011;8448;52.034;5.158;2023-02-15T13:28:41;49.92;;;30.80;;
16669;SDS011;8448;52.034;5.158;2023-02-15T13:31:12;47.00;;;31.33;;
16669;SDS011;8448;52.034;5.158;2023-02-15T13:33:42;49.47;;;34.88;;
16669;SDS011;8448;52.034;5.158;2023-02-15T13:36:14;48.33;;;32.28;;
16669;SDS011;8448;52.034;5.158;2023-02-15T13:38:49;48.58;;;30.27;;
16669;SDS011;8448;52.034;5.158;2023-02-15T13:41:23;51.90;;;32.08;;
16669;SDS011;8448;52.034;5.158;2023-02-15T13:43:57;53.42;;;32.40;;
16669;SDS011;8448;52.034;5.158;2023-02-15T13:46:37;47.67;;;30.67;;
16669;SDS011;8448;52.034;5.158;2023-02-15T13:49:14;51.20;;;31.67;;
16669;SDS011;8448;52.034;5.158;2023-02-15T13:51:51;48.67;;;30.63;;
16669;SDS011;8448;52.034;5.158;2023-02-15T13:54:26;50.95;;;31.50;;
16669;SDS011;8448;52.034;5.158;2023-02-15T13:57:30;49.83;;;30.80;;
16669;SDS011;8448;52.034;5.158;2023-02-15T14:00:17;52.08;;;32.08;;
16669;SDS011;8448;52.034;5.158;2023-02-15T14:06:00;50.70;;;32.28;;
16669;SDS011;8448;52.034;5.158;2023-02-15T14:08:51;50.07;;;32.07;;
16669;SDS011;8448;52.034;5.158;2023-02-15T14:11:27;52.90;;;33.33;;
16669;SDS011;8448;52.034;5.158;2023-02-15T14:14:11;54.10;;;32.37;;
16669;SDS011;8448;52.034;5.158;2023-02-15T14:17:11;51.73;;;32.20;;
16669;SDS011;8448;52.034;5.158;2023-02-15T14:19:44;54.90;;;33.03;;
16669;SDS011;8448;52.034;5.158;2023-02-15T14:22:17;51.03;;;32.13;;
16669;SDS011;8448;52.034;5.158;2023-02-15T14:24:53;51.63;;;32.37;;
16669;SDS011;8448;52.034;5.158;2023-02-15T14:27:26;53.97;;;33.00;;
16669;SDS011;8448;52.034;5.158;2023-02-15T14:29:59;55.10;;;33.23;;
16669;SDS011;8448;52.034;5.158;2023-02-15T14:32:30;55.30;;;33.80;;
16669;SDS011;8448;52.034;5.158;2023-02-15T14:35:02;55.80;;;33.57;;
16669;SDS011;8448;52.034;5.158;2023-02-15T14:37:34;56.30;;;34.40;;
16669;SDS011;8448;52.034;5.158;2023-02-15T14:40:08;52.67;;;33.07;;
16669;SDS011;8448;52.034;5.158;2023-02-15T14:43:00;51.40;;;31.93;;
16669;SDS011;8448;52.034;5.158;2023-02-15T14:45:34;54.93;;;33.00;;
16669;SDS011;8448;52.034;5.158;2023-02-15T14:48:09;54.10;;;31.80;;
16669;SDS011;8448;52.034;5.158;2023-02-15T14:50:39;58.30;;;33.73;;
16669;SDS011;8448;52.034;5.158;2023-02-15T14:53:22;53.50;;;32.53;;
16669;SDS011;8448;52.034;5.158;2023-02-15T14:59:00;54.13;;;32.20;;
16669;SDS011;8448;52.034;5.158;2023-02-15T15:01:39;56.73;;;32.67;;
16669;SDS011;8448;52.034;5.158;2023-02-15T15:04:07;52.23;;;30.73;;
16669;SDS011;8448;52.034;5.158;2023-02-15T15:06:37;47.50;;;30.07;;
16669;SDS011;8448;52.034;5.158;2023-02-15T15:09:11;52.73;;;32.37;;
16669;SDS011;8448;52.034;5.158;2023-02-15T15:11:44;52.80;;;32.90;;
16669;SDS011;8448;52.034;5.158;2023-02-15T15:17:06;51.20;;;32.20;;